Boekel, Netherlands
Current Conditions -  °F | °C
As of 1:25 PM on Thursday 23 Oct 2014 (Local Time) from EHVK Reporting Station
Overcast Overcast  
Wind Chill: 55°   Ceiling: 10000
Heat Index: 55°   Visibility: 6mi
Dew Point: 50°   Wind: 9mph
Humidity: 82%   Direction: 200°SSW
Pressure: 30.18"   Gusts: NA
Location:  51.6°N, 5.68°E
Report Text: EHVK 231125Z AUTO 20008KT 9999 FEW035 OVC100 13/10 Q1022 BLU 21009KT 9999 SCT030 BKN110
Loading
Personal Weather Stations






























Interactive Weather Map
Tropical Storm Tracking
New forecast layout! Learn more

10-Day Weather Forecast

Advertisements
Track Severe Weather on mobile